createdAt,value
2018-11-26T08:53:42.349Z,13.47
2018-11-26T08:56:16.869Z,14.00
2018-11-26T08:58:53.468Z,14.57
2018-11-26T09:01:31.094Z,14.90
2018-11-26T09:04:08.688Z,14.90
2018-11-26T09:06:41.934Z,14.57
2018-11-26T09:09:14.287Z,16.93
2018-11-26T09:11:47.102Z,16.30
2018-11-26T09:14:18.938Z,18.53
2018-11-26T09:16:49.487Z,18.87
2018-11-26T09:19:21.354Z,17.57
2018-11-26T09:21:52.230Z,18.53
2018-11-26T09:24:22.799Z,20.33
2018-11-26T09:26:53.321Z,22.27
2018-11-26T09:29:24.345Z,22.43
2018-11-26T09:31:55.005Z,22.70
2018-11-26T09:34:25.730Z,23.10
2018-11-26T09:36:56.301Z,25.67
2018-11-26T09:39:26.532Z,25.33
2018-11-26T09:41:56.961Z,26.53
2018-11-26T09:44:26.515Z,28.83
2018-11-26T09:46:56.143Z,26.97
2018-11-26T09:49:25.695Z,25.40
2018-11-26T09:51:55.221Z,16.67
2018-11-26T09:54:26.052Z,29.57
2018-11-26T09:56:54.511Z,30.73
2018-11-26T09:59:24.638Z,30.80
2018-11-26T10:01:54.176Z,32.67
2018-11-26T10:04:23.781Z,31.53
2018-11-26T10:06:53.930Z,32.70
2018-11-26T10:09:24.197Z,30.47
2018-11-26T10:11:53.804Z,34.03
2018-11-26T10:14:23.045Z,34.90
2018-11-26T10:16:52.764Z,34.83
2018-11-26T10:19:22.555Z,33.00
2018-11-26T10:21:52.464Z,34.53
2018-11-26T10:24:22.488Z,33.67
2018-11-26T10:26:52.599Z,34.87
2018-11-26T10:29:22.223Z,34.00
2018-11-26T10:31:51.629Z,32.57
2018-11-26T10:34:21.098Z,30.27
2018-11-26T10:36:50.853Z,32.50
2018-11-26T10:39:20.841Z,31.80
2018-11-26T10:41:50.634Z,32.93
2018-11-26T10:44:20.032Z,32.00
2018-11-26T10:46:50.253Z,33.27
2018-11-26T10:49:19.891Z,33.17
2018-11-26T10:51:49.944Z,32.83
2018-11-26T10:54:20.037Z,33.40
2018-11-26T10:56:49.743Z,34.50
2018-11-26T10:59:19.328Z,35.33
2018-11-26T11:01:53.412Z,34.30
2018-11-26T11:04:23.113Z,34.13
2018-11-26T11:06:55.869Z,35.60
2018-11-26T11:09:22.831Z,34.93
2018-11-26T11:11:52.529Z,32.93
2018-11-26T12:00:22.931Z,40.70
2018-11-26T12:02:53.987Z,39.63
2018-11-26T12:05:24.312Z,37.93
2018-11-26T12:07:55.287Z,30.03
2018-11-26T12:10:26.598Z,37.70
2018-11-26T12:12:57.228Z,34.77
2018-11-26T12:15:27.869Z,37.37
2018-11-26T12:17:58.385Z,41.00
2018-11-26T12:20:28.795Z,43.83
2018-11-26T12:22:58.908Z,44.97
2018-11-26T12:25:28.940Z,41.33
2018-11-26T12:27:58.713Z,41.40
2018-11-26T12:30:31.355Z,40.87
2018-11-26T12:33:01.207Z,39.10
2018-11-26T12:35:31.289Z,38.93
2018-11-26T12:38:02.625Z,39.30
2018-11-26T12:40:32.705Z,36.00
2018-11-26T12:43:04.117Z,36.73
2018-11-26T12:45:34.840Z,36.37
2018-11-26T12:48:04.915Z,35.50
2018-11-26T12:50:34.909Z,35.53
2018-11-26T12:53:05.108Z,34.93
2018-11-26T12:55:35.682Z,35.03
2018-11-26T12:58:05.967Z,34.50
2018-11-26T13:00:36.599Z,32.40
2018-11-26T13:03:09.576Z,32.10
2018-11-26T13:05:39.170Z,33.13
2018-11-26T13:08:10.300Z,31.63
2018-11-26T13:10:40.184Z,30.20
2018-11-26T13:13:11.061Z,32.20
2018-11-26T13:15:40.726Z,31.23
2018-11-26T13:18:11.004Z,32.03
2018-11-26T13:20:40.864Z,32.77
2018-11-26T13:23:10.673Z,34.60
2018-11-26T13:25:42.017Z,34.07
2018-11-26T13:28:11.577Z,36.80
2018-11-26T13:30:44.180Z,35.30
2018-11-26T13:33:16.404Z,35.07
2018-11-26T13:35:49.181Z,35.70
2018-11-26T13:38:20.109Z,36.20
2018-11-26T13:40:49.717Z,35.53
2018-11-26T13:43:19.561Z,35.93
2018-11-26T13:45:49.891Z,36.23
2018-11-26T13:48:20.170Z,35.50
2018-11-26T13:50:54.974Z,35.07
2018-11-26T13:53:25.204Z,33.03
2018-11-26T13:55:54.639Z,32.87
2018-11-26T13:58:24.190Z,35.17
2018-11-26T14:00:54.163Z,34.83
2018-11-26T14:03:23.365Z,34.10
2018-11-26T14:05:53.497Z,35.73
2018-11-26T14:08:22.692Z,34.57
2018-11-26T14:10:52.323Z,34.50
2018-11-26T14:13:21.915Z,33.83
2018-11-26T14:15:51.577Z,33.67
2018-11-26T14:18:21.031Z,33.87
2018-11-26T14:20:50.535Z,33.27
2018-11-26T14:23:20.601Z,32.80
2018-11-26T14:25:50.168Z,31.77
2018-11-26T14:28:19.767Z,33.53
2018-11-26T14:30:49.239Z,33.53
2018-11-26T14:33:19.077Z,35.40
2018-11-26T14:35:48.469Z,33.83
2018-11-26T14:38:18.063Z,35.30
2018-11-26T14:40:49.498Z,35.53
2018-11-26T14:43:18.965Z,36.53
2018-11-26T14:45:48.554Z,35.17
2018-11-26T14:48:17.945Z,34.70
2018-11-26T14:50:48.130Z,34.83
2018-11-26T14:53:18.633Z,35.30
2018-11-26T14:55:48.013Z,36.13
2018-11-26T14:58:17.572Z,34.23
2018-11-26T15:00:47.239Z,34.80
2018-11-26T15:03:16.829Z,34.70
2018-11-26T15:05:46.612Z,33.83
2018-11-26T15:08:16.597Z,34.97
2018-11-26T15:10:46.211Z,33.30
2018-11-26T15:13:15.702Z,33.23
2018-11-26T15:15:44.793Z,32.33
2018-11-26T15:18:14.625Z,34.40
2018-11-26T15:20:44.490Z,33.83
2018-11-26T15:23:14.045Z,32.83
2018-11-26T15:25:43.201Z,32.73
2018-11-26T15:28:13.963Z,32.70
2018-11-26T15:30:43.437Z,34.87
2018-11-26T15:33:12.948Z,34.70
2018-11-26T15:35:43.297Z,32.53
2018-11-26T15:38:12.765Z,32.60
2018-11-26T15:40:42.680Z,34.53
2018-11-26T15:43:12.457Z,33.30
2018-11-26T15:45:41.945Z,32.70
2018-11-26T15:48:12.802Z,33.50
2018-11-26T15:50:42.559Z,33.67
2018-11-26T15:53:12.062Z,34.50
2018-11-26T15:55:41.410Z,33.33
2018-11-26T15:58:11.267Z,33.53
2018-11-26T16:00:41.024Z,34.43
2018-11-26T16:03:10.981Z,32.87
2018-11-26T16:05:40.633Z,32.37
2018-11-26T16:08:14.198Z,32.50
2018-11-26T16:10:43.988Z,31.20
2018-11-26T16:13:15.134Z,31.80
2018-11-26T16:15:45.724Z,30.80
2018-11-26T16:18:19.035Z,33.10
2018-11-26T16:20:48.722Z,33.40
2018-11-26T16:23:18.191Z,33.77
2018-11-26T16:25:49.031Z,34.23
2018-11-26T16:28:20.607Z,33.63
2018-11-26T16:30:50.342Z,33.77
2018-11-26T16:33:19.974Z,34.27
2018-11-26T16:35:49.084Z,35.20
2018-11-26T16:38:18.691Z,34.17
2018-11-26T16:40:48.541Z,34.20
2018-11-26T16:43:17.960Z,35.87
2018-11-26T16:45:47.773Z,36.13
2018-11-26T16:48:17.596Z,34.43
2018-11-26T16:50:47.256Z,33.80
2018-11-26T16:53:19.393Z,33.63
2018-11-26T16:55:46.464Z,32.70
2018-11-26T16:58:16.462Z,34.27
2018-11-26T17:00:45.817Z,33.20
2018-11-26T17:03:15.414Z,30.67
2018-11-26T17:05:44.991Z,31.30
2018-11-26T17:08:15.674Z,30.00
2018-11-26T17:10:45.109Z,29.23
2018-11-26T17:13:15.391Z,28.03
